Providence, Illinois
Current Conditions -  °F | °C
As of 4:15 PM on Wednesday 28 Jan 2015 (Local Time) from KC75 Reporting Station
Clear Clear  
Wind Chill: -2°   Ceiling: Unl
Heat Index:   Visibility: 10mi
Dew Point: -2°   Wind: 14mph
Humidity: 75%   Direction: 160°SSE
Pressure: 29.98"   Gusts: 21mph
Location:  41.2776°N, 89.5099°W
Report Text: KC75 282215Z AUTO 16012G18KT 10SM CLR 03/M01 A2998 RMK AO2 T00251015
Loading
Personal Weather Stations






























Interactive Weather Map New forecast layout! Learn more

10-Day Weather Forecast

Advertisements
Track Severe Weather on mobile